createdAt,value
2023-04-15T00:00:09.148Z,5.50
2023-04-15T00:00:27.141Z,5.52
2023-04-15T00:00:39.351Z,5.51
2023-04-15T00:00:51.689Z,5.52
2023-04-15T00:01:04.189Z,5.52
2023-04-15T00:01:16.315Z,5.51
2023-04-15T00:01:28.547Z,5.52
2023-04-15T00:01:40.555Z,5.52
2023-04-15T00:01:53.248Z,5.52
2023-04-15T00:02:14.880Z,5.50
2023-04-15T00:02:27.555Z,5.50
2023-04-15T00:02:39.986Z,5.51
2023-04-15T00:02:52.403Z,5.52
2023-04-15T00:03:04.792Z,5.52
2023-04-15T00:03:17.139Z,5.51
2023-04-15T00:03:29.739Z,5.51
2023-04-15T00:03:42.520Z,5.51
2023-04-15T00:03:55.512Z,5.51
2023-04-15T00:04:08.059Z,5.51
2023-04-15T00:04:21.034Z,5.51
2023-04-15T00:04:33.889Z,5.51
2023-04-15T00:04:46.149Z,5.52
2023-04-15T00:04:58.659Z,5.51
2023-04-15T00:05:10.737Z,5.50
2023-04-15T00:05:22.683Z,5.50
2023-04-15T00:05:34.809Z,5.51
2023-04-15T00:05:46.952Z,5.52
2023-04-15T00:05:59.108Z,5.52
2023-04-15T00:06:11.088Z,5.52
2023-04-15T00:06:23.268Z,5.53
2023-04-15T00:06:37.116Z,5.52
2023-04-15T00:06:52.325Z,5.53
2023-04-15T00:07:04.549Z,5.52
2023-04-15T00:07:16.320Z,5.53
2023-04-15T00:07:28.927Z,5.52
2023-04-15T00:07:41.253Z,5.53
2023-04-15T00:07:53.446Z,5.53
2023-04-15T00:08:05.689Z,5.53
2023-04-15T00:08:17.774Z,5.53
2023-04-15T00:08:31.378Z,5.53
2023-04-15T00:08:43.552Z,5.53
2023-04-15T00:08:55.849Z,5.53
2023-04-15T00:09:08.512Z,5.53
2023-04-15T00:09:20.186Z,5.54
2023-04-15T00:09:33.535Z,5.54
2023-04-15T00:09:45.464Z,5.55
2023-04-15T00:09:57.264Z,5.55
2023-04-15T00:10:10.278Z,5.55
2023-04-15T00:10:22.471Z,5.56
2023-04-15T00:10:34.485Z,5.57
2023-04-15T00:10:46.394Z,5.57
2023-04-15T00:10:58.758Z,5.57
2023-04-15T00:11:10.919Z,5.56
2023-04-15T00:11:23.003Z,5.57
2023-04-15T00:11:35.237Z,5.57
2023-04-15T00:11:47.265Z,5.58
2023-04-15T00:11:59.521Z,5.58
2023-04-15T00:12:12.149Z,5.58
2023-04-15T00:12:24.234Z,5.59
2023-04-15T00:12:36.498Z,5.59
2023-04-15T00:12:48.909Z,5.60
2023-04-15T00:13:01.177Z,5.61
2023-04-15T00:13:13.497Z,5.61
2023-04-15T00:13:25.969Z,5.62
2023-04-15T00:13:38.265Z,5.63
2023-04-15T00:13:50.499Z,5.60
2023-04-15T00:14:02.675Z,5.64
2023-04-15T00:14:15.072Z,5.64
2023-04-15T00:14:27.332Z,5.63
2023-04-15T00:14:39.344Z,5.65
2023-04-15T00:14:51.590Z,5.63
2023-04-15T00:15:04.079Z,5.63
2023-04-15T00:15:16.606Z,5.63
2023-04-15T00:15:28.765Z,5.63
2023-04-15T00:15:40.866Z,5.63
2023-04-15T00:15:53.292Z,5.64
2023-04-15T00:16:05.858Z,5.64
2023-04-15T00:16:18.045Z,5.64
2023-04-15T00:16:30.229Z,5.65
2023-04-15T00:16:42.473Z,5.66
2023-04-15T00:16:54.259Z,5.64
2023-04-15T00:17:06.686Z,5.64
2023-04-15T00:17:18.867Z,5.64
2023-04-15T00:17:30.789Z,5.64
2023-04-15T00:17:43.042Z,5.62
2023-04-15T00:17:55.476Z,5.62
2023-04-15T00:18:07.539Z,5.63
2023-04-15T00:18:20.038Z,5.63
2023-04-15T00:18:32.340Z,5.64
2023-04-15T00:18:44.582Z,5.64
2023-04-15T00:18:56.793Z,5.63
2023-04-15T00:19:09.592Z,5.63
2023-04-15T00:19:21.923Z,5.62
2023-04-15T00:19:34.297Z,5.61
2023-04-15T00:19:46.415Z,5.62
2023-04-15T00:19:58.624Z,5.62
2023-04-15T00:20:11.668Z,5.63
2023-04-15T00:20:24.495Z,5.62
2023-04-15T00:20:36.433Z,5.63
2023-04-15T00:20:48.634Z,5.63
2023-04-15T00:21:01.159Z,5.63
2023-04-15T00:21:13.063Z,5.64
2023-04-15T00:21:25.514Z,5.63
2023-04-15T00:21:38.314Z,5.63
2023-04-15T00:21:50.820Z,5.64
2023-04-15T00:22:03.569Z,5.64
2023-04-15T00:22:15.646Z,5.64
2023-04-15T00:22:27.526Z,5.65
2023-04-15T00:22:39.801Z,5.64
2023-04-15T00:22:52.605Z,5.65
2023-04-15T00:23:04.633Z,5.65
2023-04-15T00:23:17.316Z,5.68
2023-04-15T00:23:30.019Z,5.66
2023-04-15T00:23:42.438Z,5.65
2023-04-15T00:23:54.878Z,5.65
2023-04-15T00:24:07.360Z,5.65
2023-04-15T00:24:20.027Z,5.65
2023-04-15T00:24:33.445Z,5.65
2023-04-15T00:24:45.567Z,5.66
2023-04-15T00:24:57.795Z,5.65
2023-04-15T00:25:10.278Z,5.66
2023-04-15T00:25:22.409Z,5.67
2023-04-15T00:25:34.804Z,5.64
2023-04-15T00:25:47.330Z,5.65
2023-04-15T00:25:59.614Z,5.65
2023-04-15T00:26:11.840Z,5.65
2023-04-15T00:26:24.616Z,5.66
2023-04-15T00:26:37.569Z,5.66
2023-04-15T00:26:49.613Z,5.66
2023-04-15T00:27:01.677Z,5.66
2023-04-15T00:27:13.738Z,5.66
2023-04-15T00:27:26.058Z,5.65
2023-04-15T00:27:38.311Z,5.68
2023-04-15T00:27:50.414Z,5.66
2023-04-15T00:28:02.875Z,5.69
2023-04-15T00:28:15.154Z,5.69
2023-04-15T00:28:28.266Z,5.69
2023-04-15T00:28:40.619Z,5.70
2023-04-15T00:28:53.854Z,5.71
2023-04-15T00:29:06.547Z,5.71
2023-04-15T00:29:19.020Z,5.72
2023-04-15T00:29:31.652Z,5.71
2023-04-15T00:29:44.434Z,5.74
2023-04-15T00:29:56.660Z,5.75
2023-04-15T00:30:09.192Z,5.73
2023-04-15T00:30:21.215Z,5.75
2023-04-15T00:30:33.579Z,5.74
2023-04-15T00:30:45.930Z,5.75
2023-04-15T00:30:59.291Z,5.76
2023-04-15T00:31:11.264Z,5.76
2023-04-15T00:31:24.600Z,5.76
2023-04-15T00:31:36.570Z,5.76
2023-04-15T00:31:49.445Z,5.77
2023-04-15T00:32:02.047Z,5.78
2023-04-15T00:32:14.518Z,5.78
2023-04-15T00:32:27.009Z,5.76
2023-04-15T00:32:39.074Z,5.78
2023-04-15T00:32:52.436Z,5.77
2023-04-15T00:33:07.397Z,5.77
2023-04-15T00:33:19.843Z,5.79
2023-04-15T00:33:32.410Z,5.78
2023-04-15T00:33:44.732Z,5.75
2023-04-15T00:33:56.978Z,5.76
2023-04-15T00:34:09.150Z,5.76
2023-04-15T00:34:21.284Z,5.76
2023-04-15T00:34:33.562Z,5.76
2023-04-15T00:34:46.243Z,5.76
2023-04-15T00:34:59.021Z,5.76
2023-04-15T00:35:11.065Z,5.77
2023-04-15T00:35:23.613Z,5.77
2023-04-15T00:35:35.993Z,5.77
2023-04-15T00:35:49.072Z,5.76
2023-04-15T00:36:02.092Z,5.77
2023-04-15T00:36:14.213Z,5.78
2023-04-15T00:36:26.498Z,5.76
2023-04-15T00:36:38.717Z,5.77
2023-04-15T00:36:51.505Z,5.78
2023-04-15T00:37:03.722Z,5.78
2023-04-15T00:37:15.494Z,5.77
2023-04-15T00:37:27.743Z,5.78
2023-04-15T00:37:40.473Z,5.77
2023-04-15T00:37:54.203Z,5.76
2023-04-15T00:38:07.133Z,5.75
2023-04-15T00:38:19.780Z,5.77
2023-04-15T00:38:31.972Z,5.76
2023-04-15T00:38:44.696Z,5.77
2023-04-15T00:38:57.834Z,5.76
2023-04-15T00:39:10.521Z,5.78
2023-04-15T00:39:23.419Z,5.77
2023-04-15T00:39:36.717Z,5.77
2023-04-15T00:39:49.250Z,5.77
2023-04-15T00:40:01.385Z,5.76
2023-04-15T00:40:14.134Z,5.78
2023-04-15T00:40:26.542Z,5.77
2023-04-15T00:40:39.004Z,5.76
2023-04-15T00:40:51.295Z,5.77
2023-04-15T00:41:04.898Z,5.78
2023-04-15T00:41:17.653Z,5.77
2023-04-15T00:41:29.933Z,5.75
2023-04-15T00:41:41.938Z,5.75
2023-04-15T00:41:54.825Z,5.76
2023-04-15T00:42:07.083Z,5.75
2023-04-15T00:42:20.624Z,5.76
2023-04-15T00:42:33.696Z,5.74
2023-04-15T00:42:45.774Z,5.76
2023-04-15T00:42:59.016Z,5.75
2023-04-15T00:43:11.566Z,5.76
2023-04-15T00:43:24.279Z,5.75
2023-04-15T00:43:35.992Z,5.75
2023-04-15T00:43:48.444Z,5.74
2023-04-15T00:44:01.649Z,5.74
2023-04-15T00:44:13.962Z,5.70
2023-04-15T00:44:26.309Z,5.71
2023-04-15T00:44:39.997Z,5.69
2023-04-15T00:44:52.041Z,5.70
2023-04-15T00:45:05.231Z,5.69
2023-04-15T00:45:17.236Z,5.69
2023-04-15T00:45:29.633Z,5.69
2023-04-15T00:45:42.655Z,5.69
2023-04-15T00:45:58.948Z,5.68
2023-04-15T00:46:15.870Z,5.68
2023-04-15T00:46:30.781Z,5.69
2023-04-15T00:46:45.317Z,5.68
2023-04-15T00:46:58.290Z,5.68
2023-04-15T00:47:11.341Z,5.66
2023-04-15T00:47:23.385Z,5.65
2023-04-15T00:47:36.134Z,5.66
2023-04-15T00:47:48.549Z,5.65
2023-04-15T00:48:00.638Z,5.66
2023-04-15T00:48:13.190Z,5.65
2023-04-15T00:48:27.285Z,5.65
2023-04-15T00:48:39.461Z,5.64
2023-04-15T00:48:52.358Z,5.64
2023-04-15T00:49:06.503Z,5.63
2023-04-15T00:49:19.237Z,5.63
2023-04-15T00:49:31.533Z,5.62
2023-04-15T00:49:44.233Z,5.62
2023-04-15T00:49:56.527Z,5.62
2023-04-15T00:50:09.995Z,5.62
2023-04-15T00:50:22.746Z,5.62
2023-04-15T00:50:35.019Z,5.62
2023-04-15T00:50:47.672Z,5.63
2023-04-15T00:50:59.862Z,5.62
2023-04-15T00:51:12.379Z,5.62
2023-04-15T00:51:25.260Z,5.62
2023-04-15T00:51:37.739Z,5.62
2023-04-15T00:51:50.363Z,5.62
2023-04-15T00:52:02.819Z,5.62
2023-04-15T00:52:15.430Z,5.61
2023-04-15T00:52:27.518Z,5.62
2023-04-15T00:52:39.960Z,5.61
2023-04-15T00:52:52.580Z,5.62
2023-04-15T00:53:05.007Z,5.61
2023-04-15T00:53:17.101Z,5.59
2023-04-15T00:53:30.476Z,5.55
2023-04-15T00:53:43.026Z,5.57
2023-04-15T00:53:55.265Z,5.58
2023-04-15T00:54:07.450Z,5.57
2023-04-15T00:54:20.136Z,5.57
2023-04-15T00:54:32.994Z,5.57
2023-04-15T00:54:46.947Z,5.55
2023-04-15T00:54:59.361Z,5.56
2023-04-15T00:55:11.867Z,5.57
2023-04-15T00:55:24.116Z,5.57
2023-04-15T00:55:37.376Z,5.58
2023-04-15T00:55:50.260Z,5.57
2023-04-15T00:56:02.489Z,5.57
2023-04-15T00:56:15.105Z,5.59
2023-04-15T00:56:28.947Z,5.58
2023-04-15T00:56:41.347Z,5.59
2023-04-15T00:56:54.213Z,5.59
2023-04-15T00:57:06.436Z,5.59
2023-04-15T00:57:19.056Z,5.59
2023-04-15T00:57:31.494Z,5.58
2023-04-15T00:57:44.530Z,5.60
2023-04-15T00:57:57.245Z,5.61
2023-04-15T00:58:09.891Z,5.61
2023-04-15T00:58:21.839Z,5.59
2023-04-15T00:58:34.520Z,5.61
2023-04-15T00:58:46.773Z,5.61
2023-04-15T00:58:59.810Z,5.61
2023-04-15T00:59:12.776Z,5.60
2023-04-15T00:59:26.288Z,5.63
2023-04-15T00:59:39.835Z,5.62
2023-04-15T00:59:53.573Z,5.63
2023-04-15T01:00:07.438Z,5.63
2023-04-15T01:00:20.568Z,5.62
2023-04-15T01:00:32.826Z,5.63
2023-04-15T01:00:45.664Z,5.63
2023-04-15T01:00:58.689Z,5.65
2023-04-15T01:01:10.958Z,5.63
2023-04-15T01:01:25.886Z,5.63
2023-04-15T01:01:38.246Z,5.64
2023-04-15T01:01:51.348Z,5.64
2023-04-15T01:02:03.982Z,5.63
2023-04-15T01:02:16.689Z,5.65
2023-04-15T01:02:29.266Z,5.66
2023-04-15T01:02:41.774Z,5.65
2023-04-15T01:02:55.081Z,5.66
2023-04-15T01:03:08.635Z,5.66
2023-04-15T01:03:20.703Z,5.63
2023-04-15T01:03:33.320Z,5.66
2023-04-15T01:03:45.570Z,5.66
2023-04-15T01:03:58.109Z,5.66
2023-04-15T01:04:11.255Z,5.67
2023-04-15T01:04:23.873Z,5.66
2023-04-15T01:04:36.775Z,5.68
2023-04-15T01:04:48.599Z,5.68
2023-04-15T01:05:01.341Z,5.67
2023-04-15T01:05:13.452Z,5.68
2023-04-15T01:05:26.382Z,5.69
2023-04-15T01:05:39.110Z,5.69
2023-04-15T01:05:52.727Z,5.70
2023-04-15T01:06:04.972Z,5.70
2023-04-15T01:06:17.751Z,5.68
2023-04-15T01:06:31.290Z,5.66
2023-04-15T01:06:43.882Z,5.68
2023-04-15T01:06:56.097Z,5.68
2023-04-15T01:07:08.477Z,5.68
2023-04-15T01:07:20.783Z,5.70
2023-04-15T01:07:32.927Z,5.68
2023-04-15T01:07:45.027Z,5.70
2023-04-15T01:07:57.371Z,5.70
2023-04-15T01:08:09.616Z,5.70
2023-04-15T01:08:22.321Z,5.69
2023-04-15T01:08:34.334Z,5.69
2023-04-15T01:08:46.577Z,5.68
2023-04-15T01:09:00.275Z,5.68
2023-04-15T01:09:12.800Z,5.69
2023-04-15T01:09:25.178Z,5.70
2023-04-15T01:09:37.442Z,5.70
2023-04-15T01:09:51.063Z,5.71
2023-04-15T01:10:03.865Z,5.70
2023-04-15T01:10:17.604Z,5.70
2023-04-15T01:10:31.614Z,5.70
2023-04-15T01:10:43.770Z,5.72
2023-04-15T01:10:57.225Z,5.72
2023-04-15T01:11:10.693Z,5.72
2023-04-15T01:11:24.061Z,5.72
2023-04-15T01:11:36.594Z,5.72
2023-04-15T01:11:49.222Z,5.72
2023-04-15T01:12:01.890Z,5.72
2023-04-15T01:12:17.201Z,5.71
2023-04-15T01:12:29.306Z,5.72
2023-04-15T01:12:42.323Z,5.73
2023-04-15T01:12:54.500Z,5.72
2023-04-15T01:13:06.450Z,5.73
2023-04-15T01:13:20.178Z,5.74
2023-04-15T01:13:34.392Z,5.75
2023-04-15T01:13:46.781Z,5.75
2023-04-15T01:14:00.567Z,5.75
2023-04-15T01:14:14.400Z,5.75
2023-04-15T01:14:27.125Z,5.76
2023-04-15T01:14:39.386Z,5.75
2023-04-15T01:14:51.597Z,5.76
2023-04-15T01:15:04.624Z,5.76
2023-04-15T01:15:17.107Z,5.77
2023-04-15T01:15:29.684Z,5.76
2023-04-15T01:15:42.319Z,5.76
2023-04-15T01:15:56.850Z,5.76
2023-04-15T01:16:09.731Z,5.75
2023-04-15T01:16:22.399Z,5.78
2023-04-15T01:16:36.454Z,5.76
2023-04-15T01:16:49.354Z,5.76
2023-04-15T01:17:01.769Z,5.77
2023-04-15T01:17:14.482Z,5.76
2023-04-15T01:17:27.236Z,5.77
2023-04-15T01:17:39.528Z,5.77
2023-04-15T01:17:52.876Z,5.77
2023-04-15T01:18:05.995Z,5.78
2023-04-15T01:18:18.385Z,5.79
2023-04-15T01:18:30.782Z,5.79
2023-04-15T01:18:43.215Z,5.79
2023-04-15T01:18:55.997Z,5.76
2023-04-15T01:19:11.052Z,5.77
2023-04-15T01:19:23.703Z,5.78
2023-04-15T01:19:36.590Z,5.78
2023-04-15T01:19:48.994Z,5.77
2023-04-15T01:20:01.822Z,5.76
2023-04-15T01:20:16.030Z,5.76
2023-04-15T01:20:29.313Z,5.77
2023-04-15T01:20:41.880Z,5.76
2023-04-15T01:20:54.405Z,5.76
2023-04-15T01:21:09.767Z,5.76
2023-04-15T01:21:24.929Z,5.76
2023-04-15T01:21:37.622Z,5.75
2023-04-15T01:21:50.135Z,5.76
2023-04-15T01:22:02.812Z,5.77
2023-04-15T01:22:16.239Z,5.76
2023-04-15T01:22:28.738Z,5.77
2023-04-15T01:22:41.415Z,5.76
2023-04-15T01:22:55.458Z,5.76
2023-04-15T01:23:07.790Z,5.77
2023-04-15T01:23:20.496Z,5.77
2023-04-15T01:23:33.314Z,5.77
2023-04-15T01:23:47.491Z,5.78
2023-04-15T01:24:00.616Z,5.77
2023-04-15T01:24:17.626Z,5.79
2023-04-15T01:24:31.605Z,5.76
2023-04-15T01:24:51.437Z,5.77
2023-04-15T01:25:11.909Z,5.77
2023-04-15T01:25:31.763Z,5.78
2023-04-15T01:25:44.517Z,5.79
2023-04-15T01:25:58.859Z,5.80
2023-04-15T01:26:11.944Z,5.79
2023-04-15T01:26:24.768Z,5.79
2023-04-15T01:26:37.381Z,5.79
2023-04-15T01:26:52.899Z,5.79
2023-04-15T01:27:05.798Z,5.79
2023-04-15T01:27:18.590Z,5.80
2023-04-15T01:27:31.613Z,5.80
2023-04-15T01:27:44.455Z,5.80
2023-04-15T01:27:56.775Z,5.80
2023-04-15T01:28:09.474Z,5.81
2023-04-15T01:28:22.491Z,5.80
2023-04-15T01:28:34.799Z,5.81
2023-04-15T01:28:46.958Z,5.81
2023-04-15T01:28:59.360Z,5.81
2023-04-15T01:29:12.124Z,5.81
2023-04-15T01:29:24.774Z,5.81
2023-04-15T01:29:38.578Z,5.81
2023-04-15T01:29:51.580Z,5.81
2023-04-15T01:30:04.276Z,5.81
2023-04-15T01:30:17.569Z,5.82
2023-04-15T01:30:30.026Z,5.82
2023-04-15T01:30:42.591Z,5.81
2023-04-15T01:31:06.862Z,5.83
2023-04-15T01:31:22.592Z,5.83
2023-04-15T01:31:35.087Z,5.83
2023-04-15T01:31:51.795Z,5.84
2023-04-15T01:32:03.963Z,5.83
2023-04-15T01:32:16.240Z,5.84
2023-04-15T01:32:30.120Z,5.84
2023-04-15T01:32:42.505Z,5.85
2023-04-15T01:32:55.122Z,5.87
2023-04-15T01:33:07.259Z,5.85
2023-04-15T01:33:19.456Z,5.87
2023-04-15T01:33:31.884Z,5.86
2023-04-15T01:33:44.179Z,5.85
2023-04-15T01:33:56.427Z,5.87
2023-04-15T01:34:08.731Z,5.87
2023-04-15T01:34:21.245Z,5.88
2023-04-15T01:34:35.743Z,5.89
2023-04-15T01:34:48.162Z,5.90
2023-04-15T01:35:02.153Z,5.89
2023-04-15T01:35:14.177Z,5.90
2023-04-15T01:35:28.376Z,5.90
2023-04-15T01:35:42.070Z,5.90
2023-04-15T01:35:54.324Z,5.91
2023-04-15T01:36:11.023Z,5.90
2023-04-15T01:36:23.273Z,5.92
2023-04-15T01:36:39.070Z,5.91
2023-04-15T01:36:51.394Z,5.92
2023-04-15T01:37:04.253Z,5.92
2023-04-15T01:37:16.673Z,5.93
2023-04-15T01:37:29.559Z,5.93
2023-04-15T01:37:41.926Z,5.91
2023-04-15T01:37:54.883Z,5.92
2023-04-15T01:38:27.995Z,5.91
2023-04-15T01:38:40.898Z,5.90
2023-04-15T01:38:53.332Z,5.92
2023-04-15T01:39:07.904Z,5.91
2023-04-15T01:39:19.933Z,5.92
2023-04-15T01:39:33.193Z,5.93
2023-04-15T01:39:45.177Z,5.93
2023-04-15T01:39:57.322Z,5.92
2023-04-15T01:40:10.294Z,5.94
2023-04-15T01:40:22.620Z,5.94
2023-04-15T01:40:36.245Z,5.92
2023-04-15T01:40:48.276Z,5.93
2023-04-15T01:41:00.688Z,5.93
2023-04-15T01:41:13.934Z,5.93
2023-04-15T01:41:26.270Z,5.94
2023-04-15T01:41:39.111Z,5.94
2023-04-15T01:41:51.272Z,5.94
2023-04-15T01:42:03.966Z,5.95
2023-04-15T01:42:16.112Z,5.95
2023-04-15T01:42:28.596Z,5.95
2023-04-15T01:42:40.577Z,5.95
2023-04-15T01:42:54.300Z,5.94
2023-04-15T01:43:06.906Z,5.95
2023-04-15T01:43:19.532Z,5.96
2023-04-15T01:43:31.770Z,5.95
2023-04-15T01:43:43.830Z,5.96
2023-04-15T01:43:56.167Z,5.96
2023-04-15T01:44:08.503Z,5.97
2023-04-15T01:44:20.772Z,5.97
2023-04-15T01:44:33.049Z,5.97
2023-04-15T01:44:45.852Z,5.98
2023-04-15T01:44:57.979Z,5.98
2023-04-15T01:45:10.980Z,5.99
2023-04-15T01:45:23.485Z,6.00
2023-04-15T01:45:35.939Z,6.00
2023-04-15T01:45:49.879Z,6.00
2023-04-15T01:46:02.275Z,6.01
2023-04-15T01:46:14.506Z,6.01
2023-04-15T01:46:27.048Z,6.01
2023-04-15T01:46:40.214Z,5.99
2023-04-15T01:46:52.376Z,5.99
2023-04-15T01:47:05.612Z,5.99
2023-04-15T01:47:17.636Z,6.00
2023-04-15T01:47:29.730Z,6.01
2023-04-15T01:47:41.673Z,6.01
2023-04-15T01:47:55.576Z,6.01
2023-04-15T01:48:08.055Z,6.02
2023-04-15T01:48:23.194Z,6.01
2023-04-15T01:48:36.044Z,6.02
2023-04-15T01:48:49.622Z,6.03
2023-04-15T01:49:02.447Z,6.02
2023-04-15T01:49:15.059Z,6.03
2023-04-15T01:49:27.800Z,6.03
2023-04-15T01:49:39.974Z,6.03
2023-04-15T01:49:51.997Z,6.03
2023-04-15T01:50:04.998Z,6.03
2023-04-15T01:50:17.713Z,6.03
2023-04-15T01:50:30.236Z,6.04
2023-04-15T01:50:43.246Z,6.04
2023-04-15T01:50:55.374Z,6.02
2023-04-15T01:51:07.514Z,6.05
2023-04-15T01:51:19.676Z,6.05
2023-04-15T01:51:32.034Z,6.05
2023-04-15T01:51:44.630Z,6.03
2023-04-15T01:51:58.436Z,6.06
2023-04-15T01:52:11.388Z,6.06
2023-04-15T01:52:25.985Z,6.07
2023-04-15T01:52:37.884Z,6.06
2023-04-15T01:52:50.784Z,6.07
2023-04-15T01:53:03.652Z,6.06
2023-04-15T01:53:15.430Z,6.07
2023-04-15T01:53:28.271Z,6.07
2023-04-15T01:53:40.610Z,6.08
2023-04-15T01:53:54.213Z,6.08
2023-04-15T01:54:06.249Z,6.08
2023-04-15T01:54:18.647Z,6.08
2023-04-15T01:54:31.190Z,6.07
2023-04-15T01:54:43.966Z,6.08
2023-04-15T01:54:57.692Z,6.08
2023-04-15T01:55:10.697Z,6.08
2023-04-15T01:55:24.191Z,6.07
2023-04-15T01:55:38.015Z,6.07
2023-04-15T01:55:50.034Z,6.07
2023-04-15T01:56:02.305Z,6.06
2023-04-15T01:56:16.819Z,6.06
2023-04-15T01:56:29.444Z,6.06
2023-04-15T01:56:41.387Z,6.06
2023-04-15T01:56:55.079Z,6.05
2023-04-15T01:57:07.525Z,6.06
2023-04-15T01:57:20.192Z,6.06
2023-04-15T01:57:32.689Z,6.05
2023-04-15T01:57:44.687Z,6.06
2023-04-15T01:57:57.005Z,6.05
2023-04-15T01:58:09.494Z,6.06
2023-04-15T01:58:22.058Z,6.05
2023-04-15T01:58:34.362Z,6.05
2023-04-15T01:58:47.136Z,6.06
2023-04-15T01:58:59.510Z,6.05
2023-04-15T01:59:13.798Z,6.05
2023-04-15T01:59:26.317Z,6.07
2023-04-15T01:59:39.751Z,6.06
2023-04-15T01:59:52.478Z,6.03
2023-04-15T02:00:05.060Z,6.05
2023-04-15T02:00:25.487Z,6.05
2023-04-15T02:00:37.530Z,6.06
2023-04-15T02:00:50.100Z,6.05
2023-04-15T02:01:02.442Z,6.07
2023-04-15T02:01:17.249Z,6.07
2023-04-15T02:01:29.848Z,6.06
2023-04-15T02:01:44.936Z,6.07
2023-04-15T02:01:57.875Z,6.07
2023-04-15T02:02:12.980Z,6.07
2023-04-15T02:02:25.281Z,6.06
2023-04-15T02:02:39.785Z,6.08
2023-04-15T02:02:52.286Z,6.06
2023-04-15T02:03:05.006Z,6.08
2023-04-15T02:03:17.438Z,6.08
2023-04-15T02:03:30.956Z,6.06
2023-04-15T02:03:43.714Z,6.08
2023-04-15T02:03:56.376Z,6.10
2023-04-15T02:04:08.589Z,6.10
2023-04-15T02:04:20.958Z,6.08
2023-04-15T02:04:33.652Z,6.08
2023-04-15T02:04:45.972Z,6.08
2023-04-15T02:04:58.101Z,6.07
2023-04-15T02:05:10.593Z,6.07
2023-04-15T02:05:22.643Z,6.08
2023-04-15T02:05:35.015Z,6.08
2023-04-15T02:05:49.745Z,6.07
2023-04-15T02:06:02.552Z,6.07
2023-04-15T02:06:15.285Z,6.07
2023-04-15T02:06:27.564Z,6.07
2023-04-15T02:06:41.377Z,6.08
2023-04-15T02:06:53.348Z,6.06
2023-04-15T02:07:07.065Z,6.07
2023-04-15T02:07:20.938Z,6.07
2023-04-15T02:07:33.169Z,6.07
2023-04-15T02:07:45.647Z,6.07
2023-04-15T02:07:57.785Z,6.07
2023-04-15T02:08:09.886Z,6.07
2023-04-15T02:08:24.289Z,6.06
2023-04-15T02:08:37.027Z,6.08
2023-04-15T02:08:51.923Z,6.08
2023-04-15T02:09:04.477Z,6.08
2023-04-15T02:09:16.985Z,6.09
2023-04-15T02:09:31.265Z,6.09
2023-04-15T02:09:43.452Z,6.09
2023-04-15T02:09:56.273Z,6.08
2023-04-15T02:10:09.494Z,6.10
2023-04-15T02:10:21.809Z,6.09
2023-04-15T02:10:33.996Z,6.10
2023-04-15T02:10:47.441Z,6.10
2023-04-15T02:10:59.775Z,6.10
2023-04-15T02:11:12.036Z,6.11
2023-04-15T02:11:24.335Z,6.11
2023-04-15T02:11:38.661Z,6.11
2023-04-15T02:11:50.964Z,6.11
2023-04-15T02:12:03.621Z,6.11
2023-04-15T02:12:16.235Z,6.12
2023-04-15T02:12:28.965Z,6.12
2023-04-15T02:12:41.480Z,6.11
2023-04-15T02:12:53.364Z,6.11
2023-04-15T02:13:05.814Z,6.10
2023-04-15T02:13:17.967Z,6.10
2023-04-15T02:13:30.384Z,6.09
2023-04-15T02:13:43.184Z,6.11
2023-04-15T02:13:55.416Z,6.11
2023-04-15T02:14:07.807Z,6.11
2023-04-15T02:14:20.353Z,6.10
2023-04-15T02:14:32.535Z,6.10
2023-04-15T02:14:45.425Z,6.10
2023-04-15T02:14:58.018Z,6.10
2023-04-15T02:15:12.003Z,6.09
2023-04-15T02:15:24.402Z,6.08
2023-04-15T02:15:36.538Z,6.08
2023-04-15T02:15:48.902Z,6.09
2023-04-15T02:16:01.189Z,6.08
2023-04-15T02:16:16.582Z,6.06
2023-04-15T02:16:29.884Z,6.09
2023-04-15T02:16:42.135Z,6.09
2023-04-15T02:16:55.054Z,6.08
2023-04-15T02:17:07.634Z,6.10
2023-04-15T02:17:19.969Z,6.08
2023-04-15T02:17:34.997Z,6.09
2023-04-15T02:17:49.653Z,6.08
2023-04-15T02:18:02.133Z,6.09
2023-04-15T02:18:14.424Z,6.09
2023-04-15T02:18:28.314Z,6.09
2023-04-15T02:18:40.914Z,6.10
2023-04-15T02:18:56.256Z,6.10
2023-04-15T02:19:08.958Z,6.11
2023-04-15T02:19:23.259Z,6.10
2023-04-15T02:19:35.167Z,6.11
2023-04-15T02:19:48.837Z,6.11
2023-04-15T02:20:01.435Z,6.09
2023-04-15T02:20:15.089Z,6.12
2023-04-15T02:20:28.304Z,6.12
2023-04-15T02:20:43.846Z,6.13
2023-04-15T02:20:55.950Z,6.12
2023-04-15T02:21:08.552Z,6.12
2023-04-15T02:21:23.557Z,6.12
2023-04-15T02:21:36.445Z,6.12
2023-04-15T02:21:48.996Z,6.13
2023-04-15T02:22:03.864Z,6.14
2023-04-15T02:22:16.630Z,6.17
2023-04-15T02:22:31.006Z,6.12
2023-04-15T02:22:43.377Z,6.14
2023-04-15T02:22:56.286Z,6.15
2023-04-15T02:23:09.434Z,6.14
2023-04-15T02:23:21.926Z,6.15
2023-04-15T02:23:34.325Z,6.15
2023-04-15T02:23:47.082Z,6.16
2023-04-15T02:23:59.453Z,6.17
2023-04-15T02:24:11.936Z,6.17
2023-04-15T02:24:27.054Z,6.17
2023-04-15T02:24:39.349Z,6.17
2023-04-15T02:24:51.534Z,6.17
2023-04-15T02:25:04.024Z,6.17
2023-04-15T02:25:18.110Z,6.18
2023-04-15T02:25:31.164Z,6.17
2023-04-15T02:25:43.517Z,6.18
2023-04-15T02:26:07.723Z,6.19
2023-04-15T02:26:19.730Z,6.16
2023-04-15T02:26:32.778Z,6.18
2023-04-15T02:26:45.541Z,6.17
2023-04-15T02:26:57.598Z,6.18
2023-04-15T02:27:10.448Z,6.17
2023-04-15T02:27:23.129Z,6.18
2023-04-15T02:27:36.454Z,6.19
2023-04-15T02:27:48.716Z,6.18
2023-04-15T02:28:02.496Z,6.20
2023-04-15T02:28:15.002Z,6.19
2023-04-15T02:28:30.248Z,6.21
2023-04-15T02:28:42.444Z,6.20
2023-04-15T02:28:55.637Z,6.21
2023-04-15T02:29:08.074Z,6.20
2023-04-15T02:29:20.034Z,6.21
2023-04-15T02:29:32.150Z,6.22
2023-04-15T02:29:46.752Z,6.20
2023-04-15T02:29:58.866Z,6.22
2023-04-15T02:30:12.361Z,6.22
2023-04-15T02:30:24.923Z,6.22
2023-04-15T02:30:37.243Z,6.23
2023-04-15T02:30:49.363Z,6.22
2023-04-15T02:31:04.987Z,6.22
2023-04-15T02:31:17.055Z,6.23
2023-04-15T02:31:29.525Z,6.24
2023-04-15T02:31:42.219Z,6.24
2023-04-15T02:31:55.004Z,6.24
2023-04-15T02:32:07.343Z,6.22
2023-04-15T02:32:19.531Z,6.23
2023-04-15T02:32:32.670Z,6.20
2023-04-15T02:32:45.425Z,6.20
2023-04-15T02:32:59.736Z,6.21
2023-04-15T02:33:12.069Z,6.20
2023-04-15T02:33:24.114Z,6.20
2023-04-15T02:33:36.540Z,6.19
2023-04-15T02:33:48.677Z,6.19
2023-04-15T02:34:00.967Z,6.18
2023-04-15T02:34:13.280Z,6.18
2023-04-15T02:34:30.519Z,6.19
2023-04-15T02:34:43.213Z,6.19
2023-04-15T02:34:55.843Z,6.19
2023-04-15T02:35:09.344Z,6.19
2023-04-15T02:35:22.179Z,6.18
2023-04-15T02:35:35.010Z,6.18
2023-04-15T02:35:47.670Z,6.19
2023-04-15T02:36:00.301Z,6.18
2023-04-15T02:36:14.188Z,6.17
2023-04-15T02:36:26.375Z,6.16
2023-04-15T02:36:38.472Z,6.17
2023-04-15T02:36:51.363Z,6.17
2023-04-15T02:37:04.038Z,6.18
2023-04-15T02:37:16.365Z,6.17
2023-04-15T02:37:28.520Z,6.17
2023-04-15T02:37:41.502Z,6.17
2023-04-15T02:37:54.425Z,6.15
2023-04-15T02:38:06.832Z,6.17
2023-04-15T02:38:18.896Z,6.14
2023-04-15T02:38:31.818Z,6.14
2023-04-15T02:38:44.205Z,6.15
2023-04-15T02:38:56.844Z,6.14
2023-04-15T02:39:09.247Z,6.14
2023-04-15T02:39:21.581Z,6.16
2023-04-15T02:39:33.885Z,6.14
2023-04-15T02:39:46.446Z,6.15
2023-04-15T02:39:58.472Z,6.14
2023-04-15T02:40:12.457Z,6.15
2023-04-15T02:40:25.203Z,6.16
2023-04-15T02:40:37.409Z,6.15
2023-04-15T02:40:49.855Z,6.14
2023-04-15T02:41:02.055Z,6.14
2023-04-15T02:41:15.618Z,6.13
2023-04-15T02:41:30.373Z,6.14
2023-04-15T02:41:42.844Z,6.13
2023-04-15T02:41:56.878Z,6.13
2023-04-15T02:42:09.275Z,6.13
2023-04-15T02:42:22.245Z,6.13
2023-04-15T02:42:35.600Z,6.12
2023-04-15T02:42:47.727Z,6.11
2023-04-15T02:43:01.863Z,6.12
2023-04-15T02:43:14.560Z,6.13
2023-04-15T02:43:27.001Z,6.11
2023-04-15T02:43:39.112Z,6.10
2023-04-15T02:43:51.881Z,6.11
2023-04-15T02:44:04.685Z,6.11
2023-04-15T02:44:17.375Z,6.11
2023-04-15T02:44:29.984Z,6.11
2023-04-15T02:44:44.815Z,6.11
2023-04-15T02:44:58.174Z,6.11
2023-04-15T02:45:16.194Z,6.11
2023-04-15T02:45:29.285Z,6.10
2023-04-15T02:45:41.820Z,6.12
2023-04-15T02:45:54.123Z,6.12
2023-04-15T02:46:06.167Z,6.11
2023-04-15T02:46:18.455Z,6.12
2023-04-15T02:46:30.811Z,6.12
2023-04-15T02:46:42.952Z,6.12
2023-04-15T02:46:55.462Z,6.11
2023-04-15T02:47:09.140Z,6.13
2023-04-15T02:47:21.111Z,6.14
2023-04-15T02:47:34.001Z,6.14
2023-04-15T02:47:46.979Z,6.13
2023-04-15T02:47:59.353Z,6.14
2023-04-15T02:48:11.447Z,6.16
2023-04-15T02:48:25.143Z,6.18
2023-04-15T02:48:37.717Z,6.19
2023-04-15T02:48:50.084Z,6.19
2023-04-15T02:49:02.715Z,6.18
2023-04-15T02:49:15.336Z,6.18
2023-04-15T02:49:27.449Z,6.20
2023-04-15T02:49:39.448Z,6.19
2023-04-15T02:49:52.248Z,6.20
2023-04-15T02:50:05.384Z,6.20
2023-04-15T02:50:17.955Z,6.20
2023-04-15T02:50:30.665Z,6.22
2023-04-15T02:50:43.221Z,6.22
2023-04-15T02:51:11.738Z,6.23
2023-04-15T02:51:24.029Z,6.24
2023-04-15T02:51:36.368Z,6.24
2023-04-15T02:51:49.180Z,6.26